Time;durP1;ratioP1;P1;durP2;ratioP2;P2;SDS_P1;SDS_P2;PMS_P1;PMS_P2;Temp;Humidity;BMP_temperature;BMP_pressure;BME280_temperature;BME280_humidity;BME280_pressure;Samples;Min_cycle;Max_cycle;Signal;HPM_P1;HPM_P2
2022/03/26 00:01:50;;;;;;;71.28;36.92;;;282.40;1612.80;;;;;;5054204;28;20055;-77
2022/03/26 00:04:16;;;;;;;;;;;282.40;1612.80;;;;;;5055733;28;20021;-78
2022/03/26 00:06:42;;;;;;;76.40;35.55;;;282.40;1612.80;;;;;;5055234;28;20011;-78
2022/03/26 00:09:07;;;;;;;;;;;282.40;1612.80;;;;;;5054470;28;20092;-78
2022/03/26 00:11:33;;;;;;;65.80;31.65;;;282.40;1612.80;;;;;;5053723;28;20296;-78
2022/03/26 00:13:59;;;;;;;;;;;282.10;1612.80;;;;;;5054288;28;20033;-78
2022/03/26 00:16:24;;;;;;;62.67;31.30;;;282.10;1612.80;;;;;;5053663;28;19908;-77
2022/03/26 00:18:50;;;;;;;;;;;282.00;1638.40;;;;;;5052643;28;20029;-77
2022/03/26 00:21:16;;;;;;;61.58;30.88;;;282.00;1638.40;;;;;;5050966;28;19912;-78
2022/03/26 00:23:41;;;;;;;;;;;282.00;1638.40;;;;;;5049041;28;20029;-78
2022/03/26 00:26:10;;;;;;;69.32;29.80;;;282.10;1638.40;;;;;;5053534;28;19920;-78
2022/03/26 00:28:37;;;;;;;57.00;30.40;;;282.10;1638.40;;;;;;5053429;28;20057;-77
2022/03/26 00:31:04;;;;;;;59.50;32.03;;;282.00;1612.80;;;;;;5053435;28;20059;-78
2022/03/26 00:33:30;;;;;;;62.45;31.40;;;282.00;1612.80;;;;;;5053431;28;20538;-78
2022/03/26 00:35:57;;;;;;;65.57;31.95;;;282.10;1612.80;;;;;;5053816;28;20389;-77
2022/03/26 00:38:23;;;;;;;57.33;29.17;;;282.00;1612.80;;;;;;5053817;28;20025;-79
2022/03/26 00:40:49;;;;;;;65.18;33.15;;;282.00;1612.80;;;;;;5053621;28;20029;-77
2022/03/26 00:43:14;;;;;;;;;;;282.00;1612.80;;;;;;5054756;28;20531;-78
2022/03/26 00:45:42;;;;;;;64.10;34.60;;;282.00;1612.80;;;;;;5053183;28;19911;-78
2022/03/26 00:48:08;;;;;;;63.70;33.95;;;282.00;1612.80;;;;;;5053476;28;20039;-78
2022/03/26 00:50:34;;;;;;;64.65;32.20;;;282.10;1587.20;;;;;;5053381;28;20480;-78
2022/03/26 00:53:00;;;;;;;62.92;31.98;;;281.90;1587.20;;;;;;5053102;28;20074;-78
2022/03/26 00:55:25;;;;;;;;;;;281.90;1612.80;;;;;;5053098;28;20036;-78
2022/03/26 00:57:51;;;;;;;60.97;31.63;;;281.90;1612.80;;;;;;5050433;28;19908;-78
2022/03/26 01:00:17;;;;;;;;;;;281.70;1612.80;;;;;;5053206;28;20029;-78
2022/03/26 01:02:42;;;;;;;56.90;30.58;;;281.60;1638.40;;;;;;5052945;28;19912;-78
2022/03/26 01:05:10;;;;;;;66.88;33.20;;;256.80;1638.40;;;;;;5053078;28;20053;-78
2022/03/26 01:07:36;;;;;;;72.38;34.45;;;256.90;1664.00;;;;;;5052960;28;20028;-78
2022/03/26 01:10:03;;;;;;;57.42;30.92;;;256.90;1664.00;;;;;;5052811;28;20025;-78
2022/03/26 01:12:29;;;;;;;57.33;28.77;;;256.70;1715.20;;;;;;5052516;28;20021;-78
2022/03/26 01:14:55;;;;;;;70.78;30.20;;;256.70;1766.40;;;;;;5052296;28;20021;-77
2022/03/26 01:17:21;;;;;;;55.35;28.08;;;256.70;1792.00;;;;;;5052771;28;20044;-78
2022/03/26 01:19:46;;;;;;;54.88;28.83;;;256.60;1817.60;;;;;;5052564;28;20477;-78
2022/03/26 01:22:12;;;;;;;;;;;256.60;1843.20;;;;;;5053069;28;20021;-77
2022/03/26 01:24:38;;;;;;;52.47;28.38;;;256.60;1843.20;;;;;;5053823;28;19905;-78
2022/03/26 01:27:04;;;;;;;;;;;256.60;1843.20;;;;;;5052580;28;20048;-78
2022/03/26 01:29:29;;;;;;;54.67;29.33;;;256.60;1817.60;;;;;;5053501;28;20265;-78
2022/03/26 01:31:55;;;;;;;;;;;256.50;1817.60;;;;;;5053715;28;20033;-78
2022/03/26 01:34:24;;;;;;;69.35;29.17;;;256.60;1792.00;;;;;;5053525;28;19905;-78
2022/03/26 01:36:49;;;;;;;64.90;30.67;;;256.60;1766.40;;;;;;5054935;28;20024;-77
2022/03/26 01:39:17;;;;;;;59.65;31.58;;;256.60;1740.80;;;;;;5056427;28;20029;-78
2022/03/26 01:41:43;;;;;;;66.82;34.47;;;256.70;1740.80;;;;;;5053914;28;20041;-78
2022/03/26 01:44:15;;;;;;;70.03;35.72;;;256.70;1715.20;;;;;;5043866;28;20056;-78
2022/03/26 01:46:48;;;;;;;78.07;42.80;;;256.70;1689.60;;;;;;5052269;28;20117;-78
2022/03/26 01:49:14;;;;;;;100.07;58.13;;;256.70;1715.20;;;;;;5049592;28;20013;-78
2022/03/26 01:51:40;;;;;;;121.10;80.95;;;256.70;1689.60;;;;;;5050584;28;20035;-78
2022/03/26 01:54:05;;;;;;;;;;;256.60;1689.60;;;;;;5042971;28;20061;-78
2022/03/26 01:56:31;;;;;;;93.18;52.35;;;256.60;1689.60;;;;;;5051862;28;19915;-77
2022/03/26 01:58:57;;;;;;;;;;;256.60;1689.60;;;;;;5052612;28;20082;-77
2022/03/26 02:01:22;;;;;;;71.35;34.47;;;256.50;1689.60;;;;;;5052199;28;20272;-78
2022/03/26 02:03:48;;;;;;;71.78;35.50;;;256.50;1715.20;;;;;;5052310;28;20466;-78
2022/03/26 02:06:14;;;;;;;;;;;256.50;1715.20;;;;;;5052822;28;20059;-78
2022/03/26 02:08:40;;;;;;;76.57;34.55;;;256.50;1689.60;;;;;;5052251;28;19905;-78
2022/03/26 02:11:05;;;;;;;;;;;256.50;1689.60;;;;;;5052654;28;20036;-81
2022/03/26 02:13:52;;;;;;;71.28;33.95;;;256.50;1689.60;;;;;;5052222;28;19912;-78
2022/03/26 02:16:18;;;;;;;69.47;32.83;;;256.50;1664.00;;;;;;5052287;28;20033;-78
2022/03/26 02:18:44;;;;;;;65.00;33.60;;;256.50;1664.00;;;;;;5052151;28;20029;-78
2022/03/26 02:21:10;;;;;;;66.07;33.65;;;256.30;1689.60;;;;;;5052115;28;20025;-78
2022/03/26 02:23:36;;;;;;;63.53;34.50;;;256.30;1664.00;;;;;;5051883;28;20021;-77
2022/03/26 02:26:01;;;;;;;70.60;33.80;;;256.30;1664.00;;;;;;5051999;28;20068;-78
2022/03/26 02:28:27;;;;;;;;;;;256.40;1664.00;;;;;;5052578;28;20052;-78
2022/03/26 02:30:53;;;;;;;78.72;33.00;;;256.40;1664.00;;;;;;5051880;28;20280;-78
2022/03/26 02:33:18;;;;;;;;;;;256.30;1664.00;;;;;;5053729;28;20049;-78
2022/03/26 02:35:44;;;;;;;72.55;33.33;;;256.30;1664.00;;;;;;5053302;28;20341;-77
2022/03/26 02:38:10;;;;;;;;;;;256.40;1664.00;;;;;;5052544;28;20017;-78
2022/03/26 02:40:36;;;;;;;60.10;32.38;;;256.30;1664.00;;;;;;5053120;28;19999;-78
2022/03/26 02:43:02;;;;;;;;;;;256.30;1689.60;;;;;;5054792;28;20098;-78
2022/03/26 02:45:29;;;;;;;50.40;25.02;;;256.30;1689.60;;;;;;5055843;28;19959;-77
2022/03/26 02:47:56;;;;;;;57.80;33.10;;;256.30;1689.60;;;;;;5057203;28;20028;-78
2022/03/26 02:50:22;;;;;;;65.82;34.85;;;256.40;1689.60;;;;;;5055839;28;20477;-77
2022/03/26 02:52:50;;;;;;;69.22;33.47;;;256.30;1689.60;;;;;;5055679;28;20033;-78
2022/03/26 02:55:17;;;;;;;69.60;34.08;;;256.30;1664.00;;;;;;5055498;28;20025;-78
2022/03/26 02:57:46;;;;;;;64.05;33.42;;;256.20;1689.60;;;;;;5055759;28;20116;-78
2022/03/26 03:00:13;;;;;;;68.40;35.55;;;256.30;1689.60;;;;;;5055699;28;20021;-78
2022/03/26 03:02:42;;;;;;;59.35;32.47;;;256.20;1689.60;;;;;;5056726;28;20013;-77
2022/03/26 03:05:08;;;;;;;60.30;31.70;;;256.10;1715.20;;;;;;5055542;28;20021;-77
2022/03/26 03:07:36;;;;;;;72.68;35.00;;;256.10;1715.20;;;;;;5057016;28;20485;-77
2022/03/26 03:10:03;;;;;;;65.55;33.47;;;256.00;1715.20;;;;;;5055375;28;20025;-77
2022/03/26 03:12:29;;;;;;;72.82;34.45;;;230.90;1740.80;;;;;;5055391;28;20086;-78
2022/03/26 03:14:55;;;;;;;70.82;34.88;;;230.70;1792.00;;;;;;5056705;28;20025;-78
2022/03/26 03:17:20;;;;;;;;;;;230.60;1792.00;;;;;;5055789;28;20025;-78
2022/03/26 03:19:46;;;;;;;61.33;32.05;;;230.90;1792.00;;;;;;5055268;28;19905;-78
2022/03/26 03:22:12;;;;;;;;;;;230.80;1766.40;;;;;;5055858;28;20072;-78
2022/03/26 03:24:37;;;;;;;63.10;32.53;;;205.70;1817.60;;;;;;5056538;28;19912;-77
2022/03/26 03:27:03;;;;;;;;;;;230.50;1843.20;;;;;;5056637;28;20056;-77
2022/03/26 03:29:30;;;;;;;70.30;34.65;;;205.50;1843.20;;;;;;5056270;28;19909;-78
2022/03/26 03:31:56;;;;;;;60.53;33.35;;;205.30;1868.80;;;;;;5054935;28;20051;-77
2022/03/26 03:34:23;;;;;;;64.63;34.40;;;205.20;1894.40;;;;;;5056459;28;20075;-77
2022/03/26 03:36:49;;;;;;;64.10;33.42;;;179.90;1920.00;;;;;;5056126;28;20036;-77
2022/03/26 03:39:14;;;;;;;;;;;179.70;1945.60;;;;;;5055440;28;20021;-77
2022/03/26 03:41:41;;;;;;;72.75;34.15;;;179.60;1920.00;;;;;;5056112;28;19909;-77
2022/03/26 03:44:06;;;;;;;78.20;34.97;;;179.60;1920.00;;;;;;5054562;28;20553;-78
2022/03/26 03:46:33;;;;;;;;;;;179.30;1920.00;;;;;;5055208;28;20104;-78
2022/03/26 03:49:00;;;;;;;65.93;31.92;;;179.30;1920.00;;;;;;5055165;28;19951;-78
2022/03/26 03:51:25;;;;;;;60.85;29.45;;;179.40;1920.00;;;;;;5054757;28;20090;-78
2022/03/26 03:53:51;;;;;;;;;;;179.20;1945.60;;;;;;5054922;28;20033;-77
2022/03/26 03:56:17;;;;;;;68.15;30.00;;;154.50;1945.60;;;;;;5054404;28;19920;-77
2022/03/26 03:58:42;;;;;;;;;;;154.20;1945.60;;;;;;5055380;28;20037;-77
2022/03/26 04:01:08;;;;;;;65.68;29.52;;;154.00;1971.20;;;;;;5054897;28;20425;-77
2022/03/26 04:03:33;;;;;;;;;;;154.20;1945.60;;;;;;5054968;28;20029;-78
2022/03/26 04:05:59;;;;;;;59.13;29.77;;;179.20;1945.60;;;;;;5054517;28;20365;-77
2022/03/26 04:08:25;;;;;;;;;;;154.50;1945.60;;;;;;5055004;28;20112;-78
2022/03/26 04:10:51;;;;;;;56.63;28.00;;;154.00;1945.60;;;;;;5054479;28;20283;-77
2022/03/26 04:13:16;;;;;;;;;;;154.40;1971.20;;;;;;5056139;28;20017;-78
2022/03/26 04:15:42;;;;;;;65.25;30.25;;;154.50;1971.20;;;;;;5054429;28;19905;-78
2022/03/26 04:18:08;;;;;;;;;;;154.10;1996.80;;;;;;5054862;28;20025;-78
2022/03/26 04:20:35;;;;;;;64.13;29.73;;;154.50;1996.80;;;;;;5054412;28;19905;-77
2022/03/26 04:23:00;;;;;;;74.47;29.92;;;154.30;1971.20;;;;;;5054005;28;20021;-77
2022/03/26 04:25:26;;;;;;;;;;;154.00;1996.80;;;;;;5054629;28;20078;-78
2022/03/26 04:27:52;;;;;;;53.00;24.25;;;153.60;1996.80;;;;;;5053846;28;19921;-77
2022/03/26 04:30:18;;;;;;;;;;;128.90;2022.40;;;;;;5054306;28;20045;-78
2022/03/26 04:32:44;;;;;;;64.15;27.20;;;128.80;2022.40;;;;;;5055158;28;19930;-77
2022/03/26 04:35:10;;;;;;;;;;;128.90;2022.40;;;;;;5054450;28;20129;-78
2022/03/26 04:37:37;;;;;;;51.75;24.23;;;128.70;2022.40;;;;;;5054048;28;20357;-79
2022/03/26 04:40:05;;;;;;;61.85;27.30;;;128.70;2022.40;;;;;;5053917;28;20029;-78
2022/03/26 04:42:30;;;;;;;61.38;25.95;;;153.60;2022.40;;;;;;5055024;28;20373;-76
2022/03/26 04:44:56;;;;;;;;;;;128.80;2048.00;;;;;;5055500;28;20104;-77
2022/03/26 04:47:21;;;;;;;63.67;28.30;;;153.80;2048.00;;;;;;5053691;28;19912;-78
2022/03/26 04:49:47;;;;;;;;;;;153.90;2073.60;;;;;;5054122;28;20025;-78
2022/03/26 04:52:13;;;;;;;65.25;29.58;;;153.80;2124.80;;;;;;5054918;28;19909;-77
2022/03/26 04:54:39;;;;;;;;;;;154.10;2099.20;;;;;;5054068;28;20029;-76
2022/03/26 04:57:05;;;;;;;66.13;29.23;;;154.40;2124.80;;;;;;5055540;28;19909;-76
2022/03/26 04:59:31;;;;;;;70.90;30.90;;;179.30;2099.20;;;;;;5055362;28;20029;-78
2022/03/26 05:01:57;;;;;;;;;;;179.60;2048.00;;;;;;5054947;28;20036;-78
2022/03/26 05:04:23;;;;;;;64.93;28.88;;;179.90;2022.40;;;;;;5052488;28;19904;-78
2022/03/26 05:06:49;;;;;;;54.55;29.58;;;204.80;1996.80;;;;;;5053181;28;20048;-77
2022/03/26 05:09:15;;;;;;;;;;;205.00;1971.20;;;;;;5053682;28;20473;-78
2022/03/26 05:11:42;;;;;;;61.00;29.33;;;205.10;1945.60;;;;;;5052979;28;19952;-77
2022/03/26 05:14:08;;;;;;;61.35;29.85;;;205.20;1945.60;;;;;;5053187;28;20083;-78
2022/03/26 05:16:34;;;;;;;;;;;205.30;1971.20;;;;;;5053658;28;20032;-78
2022/03/26 05:19:00;;;;;;;61.90;29.80;;;205.50;1971.20;;;;;;5053241;28;19905;-78
2022/03/26 05:21:25;;;;;;;;;;;205.50;1996.80;;;;;;5054798;28;20382;-78
2022/03/26 05:23:51;;;;;;;64.10;30.85;;;205.50;2022.40;;;;;;5052994;28;19904;-78
2022/03/26 05:26:18;;;;;;;;;;;205.60;2022.40;;;;;;5053150;28;20060;-78
2022/03/26 05:28:44;;;;;;;;;;;230.40;2022.40;;;;;;5053395;28;19913;-77
2022/03/26 05:31:10;;;;;;;54.28;28.40;;;230.50;1971.20;;;;;;5054054;28;19919;-77
2022/03/26 05:33:35;;;;;;;;;;;230.50;1971.20;;;;;;5053207;28;20482;-77
2022/03/26 05:36:01;;;;;;;63.15;31.23;;;230.60;2022.40;;;;;;5052772;28;19904;-77
2022/03/26 05:38:27;;;;;;;;;;;230.50;2073.60;;;;;;5053275;28;20070;-77
2022/03/26 05:40:52;;;;;;;61.80;32.30;;;205.50;2176.00;;;;;;5053989;28;20024;-77
2022/03/26 05:43:18;;;;;;;;;;;205.70;2099.20;;;;;;5053018;28;20029;-77
2022/03/26 05:45:44;;;;;;;71.60;31.45;;;230.40;2048.00;;;;;;5052671;28;19912;-77
2022/03/26 05:48:09;;;;;;;;;;;230.60;2022.40;;;;;;5054342;28;20028;-77
2022/03/26 05:50:35;;;;;;;60.75;28.77;;;230.50;1971.20;;;;;;5052296;28;19913;-78
2022/03/26 05:53:02;;;;;;;;;;;230.40;1996.80;;;;;;5052333;28;20028;-76
2022/03/26 05:55:28;;;;;;;56.10;24.42;;;230.70;1971.20;;;;;;5052171;28;19940;-76
2022/03/26 05:57:53;;;;;;;;;;;230.60;1945.60;;;;;;5052939;28;20516;-77
2022/03/26 06:00:19;;;;;;;60.25;31.10;;;205.70;1920.00;;;;;;5053876;28;20005;-77
2022/03/26 06:02:46;;;;;;;;;;;205.30;1945.60;;;;;;5052822;28;20795;-76
2022/03/26 06:05:12;;;;;;;46.35;23.63;;;205.50;1945.60;;;;;;5052305;28;19908;-77
2022/03/26 06:07:38;;;;;;;;;;;205.70;1971.20;;;;;;5053909;28;20033;-76
2022/03/26 06:10:04;;;;;;;55.78;28.23;;;205.50;1971.20;;;;;;5052020;28;19913;-75
2022/03/26 06:12:29;;;;;;;53.88;29.33;;;230.40;1920.00;;;;;;5052183;28;20492;-77
2022/03/26 06:14:55;;;;;;;;;;;230.70;1868.80;;;;;;5052946;28;20078;-78
2022/03/26 06:17:22;;;;;;;53.75;29.13;;;230.90;1817.60;;;;;;5052161;28;19905;-77
2022/03/26 06:19:48;;;;;;;58.45;30.83;;;230.80;1868.80;;;;;;5052282;28;20021;-78
2022/03/26 06:22:13;;;;;;;;;;;231.10;1817.60;;;;;;5053025;28;20021;-78
2022/03/26 06:24:41;;;;;;;66.22;30.63;;;231.30;1792.00;;;;;;5052670;28;20341;-77
2022/03/26 06:27:07;;;;;;;54.53;28.65;;;256.00;1766.40;;;;;;5052707;28;20126;-78
2022/03/26 06:29:34;;;;;;;54.17;29.98;;;256.20;1740.80;;;;;;5052549;28;20032;-81
2022/03/26 06:32:01;;;;;;;64.97;32.92;;;256.50;1715.20;;;;;;5053395;28;20108;-78
2022/03/26 06:34:28;;;;;;;63.42;30.17;;;256.80;1715.20;;;;;;5052360;28;20026;-79
2022/03/26 06:36:54;;;;;;;63.75;33.00;;;256.80;1689.60;;;;;;5052083;28;20037;-80
2022/03/26 06:39:20;;;;;;;54.08;29.63;;;256.80;1715.20;;;;;;5053016;28;20477;-79
2022/03/26 06:41:46;;;;;;;57.85;32.05;;;281.60;1715.20;;;;;;5051792;28;20108;-78
2022/03/26 06:44:12;;;;;;;58.03;31.50;;;281.70;1715.20;;;;;;5051325;28;20049;-76
2022/03/26 06:46:40;;;;;;;67.45;36.03;;;281.90;1689.60;;;;;;5051706;28;20116;-78
2022/03/26 06:49:07;;;;;;;68.43;35.25;;;282.10;1689.60;;;;;;5049394;28;20048;-81
2022/03/26 06:51:33;;;;;;;66.05;36.67;;;282.30;1638.40;;;;;;5051943;28;20124;-78
2022/03/26 06:53:59;;;;;;;66.32;34.78;;;282.10;1715.20;;;;;;5053170;28;20051;-77
2022/03/26 06:56:25;;;;;;;57.97;32.30;;;282.50;1664.00;;;;;;5051606;28;20029;-76
2022/03/26 06:58:51;;;;;;;61.95;31.90;;;307.20;1664.00;;;;;;5052815;28;20033;-77
2022/03/26 07:01:17;;;;;;;64.15;32.95;;;282.50;1664.00;;;;;;5053217;28;20025;-78
2022/03/26 07:03:43;;;;;;;54.13;30.70;;;307.50;1664.00;;;;;;5051553;28;20032;-75
2022/03/26 07:06:09;;;;;;;59.45;32.30;;;307.60;1638.40;;;;;;5052165;28;20033;-75
2022/03/26 07:08:35;;;;;;;60.50;32.05;;;307.70;1664.00;;;;;;5051513;28;20021;-78
2022/03/26 07:11:02;;;;;;;57.08;31.58;;;307.90;1612.80;;;;;;5051449;28;20044;-77
2022/03/26 07:13:27;;;;;;;55.28;32.55;;;308.10;1587.20;;;;;;5052596;28;20021;-74
2022/03/26 07:15:53;;;;;;;54.35;32.30;;;308.10;1612.80;;;;;;5052704;28;20108;-75
2022/03/26 07:18:19;;;;;;;;;;;308.10;1638.40;;;;;;5053258;28;20025;-77
2022/03/26 07:20:45;;;;;;;54.53;32.38;;;332.90;1612.80;;;;;;5052648;28;20401;-76
2022/03/26 07:23:11;;;;;;;;;;;333.10;1612.80;;;;;;5051672;28;20174;-76
2022/03/26 07:25:36;;;;;;;51.13;29.25;;;333.30;1561.60;;;;;;5051276;28;20007;-78
2022/03/26 07:28:03;;;;;;;51.40;28.25;;;333.30;1561.60;;;;;;5052291;28;20136;-77
2022/03/26 07:30:29;;;;;;;64.50;29.35;;;333.40;1536.00;;;;;;5056204;28;20466;-76
2022/03/26 07:32:55;;;;;;;57.22;26.92;;;333.60;1536.00;;;;;;5055455;28;20116;-75
2022/03/26 07:35:20;;;;;;;56.55;28.20;;;333.70;1536.00;;;;;;5056054;28;20032;-79
2022/03/26 07:37:46;;;;;;;48.10;26.42;;;358.50;1510.40;;;;;;5056330;28;20070;-76
2022/03/26 07:40:13;;;;;;;55.38;27.80;;;358.50;1510.40;;;;;;5054456;28;20037;-76
2022/03/26 07:42:39;;;;;;;52.58;27.17;;;358.60;1510.40;;;;;;5054131;28;20104;-77
2022/03/26 07:45:05;;;;;;;51.20;27.08;;;358.60;1510.40;;;;;;5055409;28;20113;-76
2022/03/26 07:47:34;;;;;;;48.20;27.38;;;358.80;1510.40;;;;;;5055308;28;20033;-76
2022/03/26 07:49:59;;;;;;;45.88;23.38;;;358.80;1510.40;;;;;;5055710;28;20104;-76
2022/03/26 07:52:25;;;;;;;47.47;26.98;;;358.90;1484.80;;;;;;5053670;28;20111;-78
2022/03/26 07:54:51;;;;;;;49.88;29.15;;;359.00;1484.80;;;;;;5054454;28;20099;-76
2022/03/26 07:57:16;;;;;;;49.40;25.65;;;359.00;1510.40;;;;;;5054210;28;20121;-78
2022/03/26 07:59:42;;;;;;;44.97;24.25;;;359.00;1484.80;;;;;;5055161;28;20017;-81
2022/03/26 08:02:08;;;;;;;56.25;28.55;;;359.10;1459.20;;;;;;5053112;28;20112;-76
2022/03/26 08:04:35;;;;;;;38.13;22.20;;;359.20;1433.60;;;;;;5052994;28;20028;-77
2022/03/26 08:07:01;;;;;;;44.25;22.63;;;359.20;1433.60;;;;;;5052582;28;20508;-78
2022/03/26 08:09:27;;;;;;;37.72;22.52;;;359.20;1459.20;;;;;;5053282;28;20040;-78
2022/03/26 08:11:53;;;;;;;48.47;22.23;;;359.30;1433.60;;;;;;5052939;28;20083;-78
2022/03/26 08:14:18;;;;;;;42.63;21.27;;;359.30;1459.20;;;;;;5056625;28;20408;-78
2022/03/26 08:16:44;;;;;;;44.65;22.33;;;384.00;1408.00;;;;;;5060872;28;20017;-79
2022/03/26 08:19:10;;;;;;;37.75;21.95;;;384.00;1433.60;;;;;;5060289;28;20021;-78
2022/03/26 08:21:35;;;;;;;40.55;21.67;;;384.10;1433.60;;;;;;5054255;28;20493;-78
2022/03/26 08:24:05;;;;;;;38.42;20.55;;;384.20;1433.60;;;;;;5053614;28;20041;-76
2022/03/26 08:26:31;;;;;;;41.20;22.83;;;384.20;1459.20;;;;;;5053420;28;20040;-78
2022/03/26 08:28:58;;;;;;;33.95;20.33;;;384.20;1459.20;;;;;;5053379;28;20021;-78
2022/03/26 08:31:28;;;;;;;39.78;21.17;;;384.30;1433.60;;;;;;5050845;28;20047;-78
2022/03/26 08:33:54;;;;;;;38.40;22.55;;;384.30;1408.00;;;;;;5055334;28;20059;-80
2022/03/26 08:36:20;;;;;;;40.75;21.48;;;384.50;1433.60;;;;;;5054504;28;20037;-78
2022/03/26 08:38:47;;;;;;;35.05;16.80;;;384.60;1433.60;;;;;;5054420;28;20094;-76
2022/03/26 08:41:19;;;;;;;24.70;13.38;;;384.70;1433.60;;;;;;5051986;28;20120;-77
2022/03/26 08:43:46;;;;;;;39.80;15.13;;;384.80;1356.80;;;;;;5048529;28;20021;-77
2022/03/26 08:46:12;;;;;;;27.42;14.30;;;384.90;1382.40;;;;;;5053108;28;20031;-79
2022/03/26 08:48:38;;;;;;;24.65;13.48;;;384.90;1356.80;;;;;;5054511;28;20361;-77
2022/03/26 08:51:04;;;;;;;32.70;15.93;;;409.60;1382.40;;;;;;5053463;28;20503;-77
2022/03/26 08:53:30;;;;;;;23.45;13.77;;;409.70;1382.40;;;;;;5053845;28;20389;-77
2022/03/26 08:55:56;;;;;;;23.88;13.57;;;409.70;1382.40;;;;;;5053301;28;20057;-77
2022/03/26 08:58:22;;;;;;;32.35;16.33;;;409.80;1382.40;;;;;;5053312;28;20103;-77
2022/03/26 09:00:51;;;;;;;26.73;13.70;;;410.00;1382.40;;;;;;5052922;28;20031;-77
2022/03/26 09:03:19;;;;;;;28.33;12.65;;;410.10;1356.80;;;;;;5054601;28;20013;-77
2022/03/26 09:05:55;;;;;;;28.08;15.57;;;410.20;1331.20;;;;;;5054544;28;20492;-77
2022/03/26 09:08:20;;;;;;;36.85;16.27;;;410.20;1331.20;;;;;;5054402;28;20029;-77
2022/03/26 09:10:46;;;;;;;30.25;15.82;;;410.40;1356.80;;;;;;5053094;28;20037;-77
2022/03/26 09:13:12;;;;;;;37.80;17.02;;;410.50;1331.20;;;;;;5054577;28;20033;-77
2022/03/26 09:15:39;;;;;;;31.38;13.80;;;435.20;1331.20;;;;;;5053055;28;20444;-77
2022/03/26 09:18:05;;;;;;;27.13;14.25;;;435.30;1280.00;;;;;;5052890;28;20078;-77
2022/03/26 09:20:31;;;;;;;28.60;13.32;;;435.30;1305.60;;;;;;5054134;28;20472;-77
2022/03/26 09:22:57;;;;;;;30.30;13.30;;;435.50;1280.00;;;;;;5052805;28;20091;-76
2022/03/26 09:25:22;;;;;;;27.15;10.80;;;435.50;1280.00;;;;;;5052641;28;20029;-75
2022/03/26 09:27:49;;;;;;;24.08;10.50;;;435.60;1280.00;;;;;;5053945;28;20053;-76
2022/03/26 09:30:15;;;;;;;28.77;12.57;;;435.70;1305.60;;;;;;5052391;28;20075;-77
2022/03/26 09:32:44;;;;;;;21.13;11.00;;;435.80;1280.00;;;;;;5052801;28;20485;-77
2022/03/26 09:35:11;;;;;;;16.60;10.65;;;436.00;1305.60;;;;;;5052499;28;20187;-76
2022/03/26 09:37:37;;;;;;;27.88;12.13;;;436.10;1254.40;;;;;;5052714;28;20096;-77
2022/03/26 09:40:04;;;;;;;25.85;11.68;;;460.80;1280.00;;;;;;5053958;28;20057;-76
2022/03/26 09:42:32;;;;;;;22.75;12.80;;;460.90;1254.40;;;;;;5053371;28;20017;-77
2022/03/26 09:44:58;;;;;;;24.75;12.85;;;460.90;1254.40;;;;;;5051991;28;20036;-75
2022/03/26 09:47:24;;;;;;;30.95;12.45;;;461.10;1254.40;;;;;;5051909;28;20017;-77
2022/03/26 09:49:50;;;;;;;23.63;12.93;;;461.20;1280.00;;;;;;5053449;28;20381;-76
2022/03/26 09:52:17;;;;;;;23.92;14.73;;;461.50;1254.40;;;;;;5052939;28;20048;-76
2022/03/26 09:54:43;;;;;;;24.38;14.77;;;461.60;1254.40;;;;;;5051516;28;20035;-77
2022/03/26 09:57:09;;;;;;;24.77;14.45;;;461.70;1254.40;;;;;;5053223;28;20047;-77
2022/03/26 09:59:35;;;;;;;29.80;12.80;;;486.40;1254.40;;;;;;5053449;28;20431;-77
2022/03/26 10:02:02;;;;;;;28.48;13.38;;;461.70;1228.80;;;;;;5052795;28;20504;-76
2022/03/26 10:04:37;;;;;;;21.30;12.10;;;486.70;1203.20;;;;;;5053407;28;20055;-75
2022/03/26 10:07:04;;;;;;;23.30;12.82;;;486.80;1177.60;;;;;;5051974;28;20115;-77
2022/03/26 10:09:46;;;;;;;33.30;13.15;;;486.90;1203.20;;;;;;5053454;28;20036;-75
2022/03/26 10:12:19;;;;;;;23.25;12.85;;;486.90;1177.60;;;;;;5052887;28;20040;-76
2022/03/26 10:14:52;;;;;;;28.58;13.57;;;486.80;1228.80;;;;;;5053122;28;20029;-74
2022/03/26 10:17:21;;;;;;;24.15;11.68;;;487.20;1152.00;;;;;;5052583;28;20043;-76
2022/03/26 10:19:50;;;;;;;24.00;11.68;;;487.20;1152.00;;;;;;5052419;28;20075;-75
2022/03/26 10:22:38;;;;;;;24.75;12.80;;;512.00;1126.40;;;;;;5051449;28;20362;-75
2022/03/26 10:25:10;;;;;;;26.48;12.50;;;512.50;1126.40;;;;;;5050312;28;20029;-75
2022/03/26 10:27:37;;;;;;;19.70;12.18;;;512.70;1100.80;;;;;;5052358;28;20497;-76
2022/03/26 10:30:04;;;;;;;25.08;10.88;;;512.90;1075.20;;;;;;5051286;28;20033;-76
2022/03/26 10:32:39;;;;;;;20.25;8.63;;;537.60;1100.80;;;;;;5053023;28;20551;-75
2022/03/26 10:35:27;;;;;;;16.33;9.88;;;537.70;1075.20;;;;;;5051775;28;20059;-77
2022/03/26 10:38:03;;;;;;;17.42;9.32;;;537.80;1024.00;;;;;;5051868;28;20025;-77
2022/03/26 10:40:31;;;;;;;16.63;9.07;;;537.80;1049.60;;;;;;5051804;28;20397;-76
2022/03/26 10:43:11;;;;;;;20.13;8.90;;;538.10;1024.00;;;;;;5052480;28;20028;-79
2022/03/26 10:45:49;;;;;;;18.52;9.15;;;538.30;972.80;;;;;;5050043;28;20066;-75
2022/03/26 10:48:22;;;;;;;16.38;9.55;;;538.50;947.20;;;;;;5049763;28;20013;-75
2022/03/26 10:50:53;;;;;;;20.10;9.73;;;538.50;972.80;;;;;;5051183;28;20041;-75
2022/03/26 10:53:19;;;;;;;17.23;9.20;;;538.40;972.80;;;;;;5050295;28;20029;-76
2022/03/26 10:55:45;;;;;;;12.98;8.52;;;538.50;947.20;;;;;;5052360;28;20021;-77
2022/03/26 10:58:11;;;;;;;16.63;8.98;;;563.20;972.80;;;;;;5052835;28;20022;-75
2022/03/26 11:00:37;;;;;;;22.95;9.93;;;563.50;972.80;;;;;;5052845;28;20021;-75
2022/03/26 11:03:02;;;;;;;15.52;9.02;;;563.70;972.80;;;;;;5052173;28;20025;-75
2022/03/26 11:05:30;;;;;;;18.60;9.40;;;563.70;972.80;;;;;;5057032;28;20025;-76
2022/03/26 11:07:57;;;;;;;16.77;8.77;;;563.90;998.40;;;;;;5055768;28;20473;-75
2022/03/26 11:10:24;;;;;;;13.80;8.02;;;564.00;947.20;;;;;;5055863;28;20025;-77
2022/03/26 11:12:50;;;;;;;13.20;9.10;;;588.90;947.20;;;;;;5055374;28;20064;-79
2022/03/26 11:15:30;;;;;;;17.40;8.48;;;588.80;947.20;;;;;;5055245;28;20127;-76
2022/03/26 11:18:11;;;;;;;19.33;8.63;;;564.10;947.20;;;;;;5056527;28;20151;-75
2022/03/26 11:20:40;;;;;;;16.27;8.63;;;564.10;921.60;;;;;;5055192;28;20037;-76
2022/03/26 11:23:39;;;;;;;18.05;8.55;;;564.10;947.20;;;;;;5055100;28;20028;-78
2022/03/26 11:26:43;;;;;;;11.88;7.90;;;588.90;896.00;;;;;;5055179;28;20060;-79
2022/03/26 11:29:37;;;;;;;19.35;8.68;;;588.90;921.60;;;;;;5052629;28;20401;-78
2022/03/26 11:32:26;;;;;;;19.10;8.80;;;589.20;896.00;;;;;;5029899;28;20048;-78
2022/03/26 11:35:08;;;;;;;14.25;9.05;;;589.30;896.00;;;;;;5034759;28;20040;-76
2022/03/26 11:37:34;;;;;;;15.93;8.35;;;589.60;870.40;;;;;;5035118;28;20033;-78
2022/03/26 11:40:00;;;;;;;17.75;9.80;;;589.60;921.60;;;;;;5036080;28;20052;-78
2022/03/26 11:42:37;;;;;;;12.68;8.63;;;589.60;1152.00;;;;;;5035841;28;20021;-77
2022/03/26 11:51:17;;;;;;;18.45;9.38;;;614.40;819.20;;;;;;5035780;28;20098;-77
2022/03/26 11:53:47;;;;;;;22.98;7.82;;;614.40;844.80;;;;;;5035810;28;20022;-78
2022/03/26 11:56:24;;;;;;;17.85;7.55;;;588.90;870.40;;;;;;5035435;28;20117;-78
2022/03/26 11:59:16;;;;;;;10.52;7.70;;;589.20;844.80;;;;;;5054672;28;20029;-79
2022/03/26 12:01:44;;;;;;;14.55;6.72;;;589.60;819.20;;;;;;5053978;28;20025;-77
2022/03/26 12:04:11;;;;;;;15.95;7.13;;;614.40;819.20;;;;;;5055560;28;20032;-77
2022/03/26 12:06:47;;;;;;;13.18;8.40;;;614.50;793.60;;;;;;5054303;28;20025;-77
2022/03/26 12:09:29;;;;;;;12.60;6.95;;;614.50;819.20;;;;;;5055664;28;20021;-77
2022/03/26 12:12:08;;;;;;;11.73;6.88;;;614.70;819.20;;;;;;5053932;28;20041;-75
2022/03/26 12:15:02;;;;;;;15.73;6.57;;;614.80;793.60;;;;;;5054785;28;20035;-79
2022/03/26 12:17:47;;;;;;;11.57;6.78;;;614.90;768.00;;;;;;5053670;28;20104;-77
2022/03/26 12:20:34;;;;;;;13.73;6.45;;;615.00;768.00;;;;;;5054088;28;20017;-78
2022/03/26 12:23:26;;;;;;;7.97;5.10;;;614.80;793.60;;;;;;5055216;28;20021;-75
2022/03/26 12:25:58;;;;;;;9.05;5.72;;;615.00;768.00;;;;;;5054608;28;20028;-78
2022/03/26 12:28:30;;;;;;;9.63;5.70;;;614.80;793.60;;;;;;5053586;28;20025;-77